TimeEST,TemperatureF,Dew PointF,Humidity,Sea Level PressureIn,VisibilityMPH,Wind Direction,Wind SpeedMPH,Gust SpeedMPH,PrecipitationIn,Events,Conditions,WindDirDegrees,DateUTC
12:51 AM,37.0,21.0,52,30.12,10.0,North,17.3,-,N/A,,Clear,360,2013-03-09 05:51:00
1:51 AM,37.0,19.9,50,30.12,10.0,North,19.6,31.1,N/A,,Clear,360,2013-03-09 06:51:00
2:51 AM,36.0,19.9,52,30.12,10.0,North,18.4,26.5,N/A,,Clear,360,2013-03-09 07:51:00
3:51 AM,35.1,19.0,52,30.12,10.0,North,18.4,25.3,N/A,,Clear,10,2013-03-09 08:51:00
4:51 AM,34.0,19.0,54,30.14,10.0,North,13.8,-,N/A,,Clear,360,2013-03-09 09:51:00
5:51 AM,34.0,18.0,52,30.17,10.0,North,16.1,26.5,N/A,,Partly Cloudy,10,2013-03-09 10:51:00
6:51 AM,34.0,19.0,54,30.19,10.0,North,16.1,-,N/A,,Partly Cloudy,10,2013-03-09 11:51:00
7:51 AM,35.1,19.9,54,30.22,10.0,North,19.6,27.6,N/A,,Clear,10,2013-03-09 12:51:00
8:51 AM,36.0,21.9,57,30.21,10.0,NNE,20.7,-,N/A,,Partly Cloudy,20,2013-03-09 13:51:00
9:51 AM,37.9,24.1,57,30.22,10.0,NNE,18.4,-,N/A,,Partly Cloudy,20,2013-03-09 14:51:00
10:51 AM,42.1,27.0,55,30.23,10.0,NNE,16.1,-,N/A,,Scattered Clouds,20,2013-03-09 15:51:00
11:51 AM,45.0,28.0,52,30.23,10.0,NNE,16.1,24.2,N/A,,Scattered Clouds,20,2013-03-09 16:51:00
12:51 PM,46.9,26.1,44,30.23,10.0,NNE,15.0,21.9,N/A,,Partly Cloudy,20,2013-03-09 17:51:00
1:51 PM,46.9,24.1,41,30.22,10.0,NNE,16.1,-,N/A,,Partly Cloudy,30,2013-03-09 18:51:00
2:51 PM,48.0,25.0,41,30.22,10.0,NE,15.0,-,N/A,,Partly Cloudy,50,2013-03-09 19:51:00
3:51 PM,46.9,26.1,44,30.23,10.0,NE,10.4,-,N/A,,Partly Cloudy,40,2013-03-09 20:51:00
4:51 PM,44.1,26.1,49,30.25,10.0,NE,11.5,-,N/A,,Partly Cloudy,40,2013-03-09 21:51:00
5:51 PM,39.9,27.0,60,30.28,10.0,NE,10.4,-,N/A,,Partly Cloudy,50,2013-03-09 22:51:00
6:51 PM,36.0,27.0,70,30.30,10.0,ENE,10.4,-,N/A,,Clear,60,2013-03-09 23:51:00
7:51 PM,33.1,26.1,75,30.32,10.0,North,6.9,-,N/A,,Clear,10,2013-03-10 00:51:00
8:51 PM,32.0,27.0,82,30.32,10.0,NNE,6.9,-,N/A,,Partly Cloudy,20,2013-03-10 01:51:00
9:51 PM,33.1,28.0,82,30.34,10.0,North,5.8,-,N/A,,Clear,360,2013-03-10 02:51:00
10:51 PM,32.0,27.0,82,30.32,10.0,North,5.8,-,N/A,,Clear,360,2013-03-10 03:51:00
11:51 PM,32.0,28.0,85,30.34,10.0,NNW,8.1,-,N/A,,Partly Cloudy,340,2013-03-10 04:51:00